»·PEaware :: TEXAN15 KRND-KRND

TEXAN15 :: KRND-KRND

FLIGHT INFORMATION

Flight Status: Arrived
Operator: Unknown
More flights by this operator :: More flights under this callsign
Pilot: Indie I. (23336)
Aircraft: BEECH AIRCRAFT T-6A TEXAN
(TEX2)
More flights by this aircraft type
Origin: KRND Randolph AFB
United States
Destination: KRND Randolph AFB
United States
More flights between these airports :: More routes between these airports
Route: PATTERNS
File this flight plan on PilotEdge
Remarks: +CW / NA
Altitude:
(Current/Filed)
1,800ft
Speed:
(Current/Filed)
267kts
Departed: 13-Feb-20 11:47 AM
Arrived: 13-Feb-20 01:06 PM
Distance/Time
Traveled:
1nm/1:19
Distance/Time
To Go:
Arrived

Flight Plot

Page will automatically refresh every two minutes.

Flight plan parsing failed; only flown route is shown


Map Options




Map Legend


Flown Route
Filed Route
Departure Airport
Arrival Airport
Navaid (VOR, NDB)
Fix

Horizontal Profiles

Position Reports

Time Latitude Longitude Heading Altitude Ground
Speed
13-Feb-20 11:34 29.534873 -98.290959 152 765ft 0kts
13-Feb-20 11:35 29.534873 -98.290959 152 765ft 0kts
13-Feb-20 11:36 29.534871 -98.290957 152 765ft 0kts
13-Feb-20 11:37 29.532317 -98.289345 150 765ft 27kts
13-Feb-20 11:38 29.525272 -98.284711 151 765ft 27kts
13-Feb-20 11:39 29.519392 -98.280856 154 765ft 0kts
13-Feb-20 11:40 29.519215 -98.280739 148 765ft 9kts
13-Feb-20 11:41 29.515594 -98.279269 235 765ft 4kts
13-Feb-20 11:42 29.515569 -98.279312 237 765ft 0kts
13-Feb-20 11:43 29.515568 -98.279315 237 765ft 0kts
13-Feb-20 11:44 29.515493 -98.279465 240 765ft 0kts
13-Feb-20 11:45 29.515899 -98.280592 333 765ft 14kts
13-Feb-20 11:46 29.547427 -98.304940 266 1034ft 212kts
13-Feb-20 11:47 29.508390 -98.321666 142 1916ft 190kts
13-Feb-20 11:48 29.468471 -98.283689 58 1801ft 198kts
13-Feb-20 11:49 29.510517 -98.276717 330 1889ft 206kts
13-Feb-20 11:50 29.503755 -98.286424 145 1775ft 132kts
13-Feb-20 11:51 29.521108 -98.284152 330 784ft 116kts
13-Feb-20 11:52 29.536365 -98.323845 233 1747ft 214kts
13-Feb-20 11:53 29.491172 -98.311346 145 1805ft 207kts
13-Feb-20 11:54 29.479982 -98.264800 24 1868ft 195kts
13-Feb-20 11:55 29.523297 -98.293026 253 1796ft 180kts
13-Feb-20 11:56 29.504198 -98.274154 355 1170ft 141kts
13-Feb-20 11:57 29.537026 -98.294348 330 1146ft 170kts
13-Feb-20 11:58 29.520423 -98.331214 136 1798ft 198kts
13-Feb-20 11:59 29.472488 -98.297532 150 1864ft 209kts
13-Feb-20 12:00 29.499873 -98.269665 330 1958ft 201kts
13-Feb-20 12:01 29.537666 -98.296048 261 3052ft 148kts
13-Feb-20 12:02 29.505024 -98.284950 152 2012ft 135kts
13-Feb-20 12:03 29.477836 -98.316614 258 2349ft 182kts
13-Feb-20 12:04 29.492811 -98.329735 90 1657ft 175kts
13-Feb-20 12:05 29.471631 -98.278254 67 1885ft 203kts
13-Feb-20 12:06 29.516806 -98.280805 331 1887ft 205kts
13-Feb-20 12:07 29.534494 -98.323500 230 1847ft 205kts
13-Feb-20 12:08 29.489558 -98.309680 146 1890ft 207kts
13-Feb-20 12:09 29.483098 -98.263692 16 1774ft 205kts
13-Feb-20 12:10 29.523355 -98.287589 278 3259ft 148kts
13-Feb-20 12:11 29.511481 -98.277834 332 873ft 140kts
13-Feb-20 12:12 29.546016 -98.305348 245 1202ft 214kts
13-Feb-20 12:13 29.504238 -98.320478 145 1803ft 207kts
13-Feb-20 12:14 29.454907 -98.285389 151 1645ft 212kts
13-Feb-20 12:15 29.466561 -98.251647 12 1418ft 144kts
13-Feb-20 12:16 29.498990 -98.269357 329 1131ft 123kts
13-Feb-20 12:17 29.527014 -98.288005 331 981ft 149kts
13-Feb-20 12:18 29.530583 -98.332796 231 1842ft 210kts
13-Feb-20 12:19 29.483068 -98.304437 148 1869ft 202kts
13-Feb-20 12:20 29.489600 -98.263037 328 1786ft 195kts
13-Feb-20 12:21 29.518230 -98.296166 151 1777ft 146kts
13-Feb-20 12:22 29.510339 -98.277024 329 853ft 130kts
13-Feb-20 12:23 29.542276 -98.301861 266 1848ft 165kts
13-Feb-20 12:24 29.507246 -98.288588 150 2075ft 131kts
13-Feb-20 12:25 29.518444 -98.282367 330 766ft 94kts
13-Feb-20 12:26 29.529300 -98.302759 152 2401ft 169kts
13-Feb-20 12:27 29.500541 -98.278100 71 1594ft 133kts
13-Feb-20 12:28 29.529315 -98.289390 331 977ft 157kts
13-Feb-20 12:30 29.525809 -98.335677 209 1775ft 216kts
13-Feb-20 12:31 29.477362 -98.301554 146 1870ft 215kts
13-Feb-20 12:32 29.494125 -98.266001 329 1893ft 204kts
13-Feb-20 12:33 29.525839 -98.293925 249 3043ft 149kts
13-Feb-20 12:34 29.508859 -98.277165 358 975ft 123kts
13-Feb-20 12:35 29.542241 -98.302072 281 1587ft 183kts
13-Feb-20 12:36 29.505347 -98.289501 148 2002ft 162kts
13-Feb-20 12:37 29.472185 -98.298994 291 2349ft 200kts
13-Feb-20 12:38 29.481526 -98.326251 291 2332ft 211kts
13-Feb-20 12:39 29.491130 -98.332261 118 1847ft 212kts
13-Feb-20 12:40 29.471726 -98.278484 70 1798ft 201kts
13-Feb-20 12:41 29.515695 -98.280279 330 1900ft 203kts
13-Feb-20 12:42 29.502613 -98.285907 142 1716ft 134kts
13-Feb-20 12:43 29.522180 -98.284828 332 824ft 120kts
13-Feb-20 12:44 29.535064 -98.325753 232 1931ft 209kts
13-Feb-20 12:45 29.498396 -98.304056 73 2644ft 188kts
13-Feb-20 12:46 29.526010 -98.288192 292 3186ft 141kts
13-Feb-20 12:46 29.508078 -98.283878 134 1692ft 117kts
13-Feb-20 12:48 29.506886 -98.273233 8 905ft 102kts
13-Feb-20 12:49 29.539243 -98.295099 330 1870ft 185kts
13-Feb-20 12:49 29.565907 -98.329015 242 2416ft 248kts
13-Feb-20 12:50 29.550428 -98.344076 185 2487ft 255kts
13-Feb-20 12:52 29.526169 -98.345645 183 2510ft 257kts
13-Feb-20 12:52 29.486741 -98.322401 112 1806ft 204kts
13-Feb-20 12:53 29.474005 -98.269823 65 1829ft 205kts
13-Feb-20 12:54 29.523255 -98.286449 305 1880ft 211kts
13-Feb-20 12:55 29.503656 -98.275642 18 1208ft 142kts
13-Feb-20 12:56 29.538477 -98.296915 303 1297ft 175kts
13-Feb-20 12:57 29.506922 -98.285455 145 2008ft 140kts
13-Feb-20 12:58 29.523425 -98.285643 329 799ft 128kts
13-Feb-20 12:59 29.529793 -98.302311 147 2358ft 158kts
13-Feb-20 13:00 29.502815 -98.275847 36 1466ft 128kts
13-Feb-20 13:01 29.531824 -98.291138 330 982ft 165kts
13-Feb-20 13:02 29.523273 -98.333746 159 1780ft 205kts
13-Feb-20 13:03 29.476732 -98.300117 140 1958ft 136kts
13-Feb-20 13:04 29.496532 -98.275641 16 1443ft 159kts
13-Feb-20 13:05 29.529167 -98.289371 330 765ft 39kts
13-Feb-20 13:06 29.530802 -98.289464 70 765ft 0kts
13-Feb-20 13:07 29.530803 -98.289461 70 765ft 0kts

Navigation Log

Ident Type
Flight plan parsing failed, navigation log unavailable